createdAt,value
2019-05-21T00:00:28.094Z,0.00
2019-05-21T00:02:57.909Z,0.00
2019-05-21T00:05:27.963Z,0.00
2019-05-21T00:07:57.564Z,0.00
2019-05-21T00:10:27.357Z,0.00
2019-05-21T00:12:57.015Z,0.00
2019-05-21T00:15:26.773Z,0.00
2019-05-21T00:17:58.645Z,0.00
2019-05-21T00:20:30.233Z,0.00
2019-05-21T00:23:00.914Z,0.00
2019-05-21T00:25:31.541Z,0.00
2019-05-21T00:28:34.025Z,0.00
2019-05-21T00:31:42.231Z,0.00
2019-05-21T00:34:50.092Z,0.00
2019-05-21T00:37:56.281Z,0.00
2019-05-21T00:41:04.025Z,0.00
2019-05-21T00:43:52.308Z,0.00
2019-05-21T00:46:22.034Z,0.00
2019-05-21T00:48:52.723Z,0.00
2019-05-21T00:51:22.416Z,0.00
2019-05-21T00:53:52.798Z,0.00
2019-05-21T00:56:23.801Z,0.00
2019-05-21T00:58:53.596Z,0.00
2019-05-21T01:01:23.468Z,0.00
2019-05-21T01:03:53.190Z,0.00
2019-05-21T01:06:25.517Z,0.00
2019-05-21T01:08:57.631Z,0.00
2019-05-21T01:11:30.568Z,0.00
2019-05-21T01:14:02.257Z,0.00
2019-05-21T01:16:32.756Z,0.00
2019-05-21T01:19:03.271Z,0.00
2019-05-21T01:21:33.245Z,0.00
2019-05-21T01:24:02.762Z,0.00
2019-05-21T01:26:33.070Z,0.00
2019-05-21T01:29:02.762Z,0.00
2019-05-21T01:31:32.494Z,0.00
2019-05-21T01:34:02.344Z,0.00
2019-05-21T01:36:32.304Z,0.00
2019-05-21T01:39:07.436Z,0.00
2019-05-21T01:41:37.515Z,0.00
2019-05-21T01:44:08.841Z,0.00
2019-05-21T01:46:43.700Z,0.00
2019-05-21T01:49:17.665Z,0.00
2019-05-21T01:51:49.180Z,0.00
2019-05-21T01:54:22.848Z,0.00
2019-05-21T01:56:52.543Z,0.00
2019-05-21T01:59:22.313Z,0.00
2019-05-21T02:01:52.059Z,0.00
2019-05-21T02:04:21.819Z,0.00
2019-05-21T02:06:51.658Z,0.00
2019-05-21T02:09:25.529Z,0.00
2019-05-21T02:11:55.278Z,0.00
2019-05-21T02:14:25.413Z,0.00
2019-05-21T02:16:57.795Z,0.00
2019-05-21T02:19:28.953Z,0.00
2019-05-21T02:22:01.107Z,0.00
2019-05-21T02:24:32.674Z,0.00
2019-05-21T02:27:03.455Z,0.00
2019-05-21T02:29:34.172Z,0.00
2019-05-21T02:32:03.951Z,0.00
2019-05-21T02:34:36.469Z,0.00
2019-05-21T02:37:06.669Z,0.00
2019-05-21T02:39:36.687Z,0.00
2019-05-21T02:42:06.430Z,0.00
2019-05-21T02:44:36.206Z,0.00
2019-05-21T02:47:06.034Z,0.00
2019-05-21T02:49:40.004Z,0.00
2019-05-21T02:52:09.813Z,0.00
2019-05-21T02:54:41.713Z,0.00
2019-05-21T02:57:11.046Z,0.00
2019-05-21T02:59:42.913Z,0.00
2019-05-21T03:02:29.005Z,0.00
2019-05-21T03:05:05.492Z,0.00
2019-05-21T03:07:36.462Z,0.00
2019-05-21T03:10:06.324Z,0.00
2019-05-21T03:12:37.702Z,0.00
2019-05-21T03:15:07.507Z,0.00
2019-05-21T03:17:38.734Z,0.00
2019-05-21T03:20:08.782Z,0.00
2019-05-21T03:22:38.831Z,0.00
2019-05-21T03:25:08.800Z,0.00
2019-05-21T03:27:40.210Z,0.00
2019-05-21T03:30:10.110Z,0.00
2019-05-21T03:32:41.401Z,0.00
2019-05-21T03:35:11.482Z,0.00
2019-05-21T03:37:41.943Z,0.00
2019-05-21T03:40:12.055Z,0.00
2019-05-21T03:42:45.143Z,0.00
2019-05-21T03:45:15.349Z,0.00
2019-05-21T03:47:45.190Z,0.00
2019-05-21T03:50:16.938Z,0.00
2019-05-21T03:52:47.788Z,0.00
2019-05-21T03:55:17.714Z,0.00
2019-05-21T03:57:47.467Z,0.00
2019-05-21T04:00:17.881Z,0.00
2019-05-21T04:02:47.663Z,0.00
2019-05-21T04:05:22.948Z,0.00
2019-05-21T04:07:53.506Z,0.00
2019-05-21T04:10:25.860Z,0.00
2019-05-21T04:13:08.307Z,0.00
2019-05-21T04:15:57.759Z,0.00
2019-05-21T04:18:44.448Z,0.00
2019-05-21T04:21:17.370Z,0.00
2019-05-21T04:23:48.527Z,0.00
2019-05-21T04:26:18.025Z,0.00
2019-05-21T04:28:51.192Z,0.00
2019-05-21T04:31:22.125Z,0.00
2019-05-21T04:33:51.889Z,0.00
2019-05-21T04:36:24.522Z,0.00
2019-05-21T04:38:55.191Z,0.00
2019-05-21T04:41:25.082Z,0.00
2019-05-21T04:43:54.776Z,0.00
2019-05-21T04:46:24.491Z,28.78
2019-05-21T04:48:54.289Z,60.29
2019-05-21T04:51:26.625Z,52.42
2019-05-21T04:53:58.029Z,69.51
2019-05-21T04:56:28.213Z,85.92
2019-05-21T04:58:59.136Z,100.00
2019-05-21T05:01:30.562Z,100.00
2019-05-21T05:04:00.349Z,100.00
2019-05-21T05:06:31.877Z,100.00
2019-05-21T05:09:03.484Z,100.00
2019-05-21T05:11:35.552Z,100.00
2019-05-21T05:14:06.210Z,100.00
2019-05-21T05:16:38.010Z,100.00
2019-05-21T05:19:09.113Z,100.00
2019-05-21T05:21:38.854Z,100.00
2019-05-21T05:24:08.465Z,100.00
2019-05-21T05:26:38.262Z,100.00
2019-05-21T05:29:07.993Z,0.00
2019-05-21T05:31:37.649Z,0.00
2019-05-21T05:34:07.611Z,100.00
2019-05-21T05:36:37.380Z,100.00
2019-05-21T05:39:08.584Z,100.00
2019-05-21T05:41:38.372Z,100.00
2019-05-21T05:44:08.232Z,0.00
2019-05-21T05:46:37.948Z,0.00
2019-05-21T05:49:09.268Z,0.00
2019-05-21T05:51:39.043Z,0.00
2019-05-21T05:54:09.042Z,0.00
2019-05-21T05:56:38.804Z,0.00
2019-05-21T05:59:08.666Z,0.00
2019-05-21T06:01:38.410Z,0.00
2019-05-21T06:04:08.159Z,0.00
2019-05-21T06:06:37.899Z,0.00
2019-05-21T06:09:07.720Z,0.00
2019-05-21T06:11:37.459Z,0.00
2019-05-21T06:14:07.209Z,0.00
2019-05-21T06:16:36.993Z,0.00
2019-05-21T06:19:07.100Z,0.00
2019-05-21T06:21:37.275Z,100.00
2019-05-21T06:24:07.015Z,0.00
2019-05-21T06:26:36.803Z,100.00
2019-05-21T06:29:06.591Z,100.00
2019-05-21T06:31:36.378Z,100.00
2019-05-21T06:34:07.023Z,100.00
2019-05-21T06:36:39.883Z,100.00
2019-05-21T06:39:10.383Z,100.00
2019-05-21T06:41:40.239Z,100.00
2019-05-21T06:44:10.026Z,100.00
2019-05-21T06:46:39.732Z,0.00
2019-05-21T06:49:09.441Z,100.00
2019-05-21T06:51:39.267Z,0.00
2019-05-21T06:54:09.063Z,100.00
2019-05-21T06:56:38.876Z,100.00
2019-05-21T06:59:08.463Z,100.00
2019-05-21T07:01:38.229Z,100.00
2019-05-21T07:04:08.003Z,100.00
2019-05-21T07:06:37.863Z,100.00
2019-05-21T07:09:08.723Z,100.00
2019-05-21T07:11:39.853Z,100.00
2019-05-21T07:14:09.604Z,100.00
2019-05-21T07:16:39.407Z,100.00
2019-05-21T07:19:09.175Z,100.00
2019-05-21T07:21:38.941Z,100.00
2019-05-21T07:24:08.704Z,100.00
2019-05-21T07:26:39.603Z,100.00
2019-05-21T07:29:09.351Z,100.00
2019-05-21T07:31:39.584Z,100.00
2019-05-21T07:34:09.385Z,100.00
2019-05-21T07:36:39.204Z,100.00
2019-05-21T07:39:10.587Z,100.00
2019-05-21T07:41:40.263Z,0.00
2019-05-21T07:44:10.282Z,0.00
2019-05-21T07:46:40.448Z,100.00
2019-05-21T07:49:10.171Z,0.00
2019-05-21T07:51:40.473Z,0.00
2019-05-21T07:54:10.221Z,0.00
2019-05-21T07:56:39.879Z,0.00
2019-05-21T07:59:09.663Z,0.00
2019-05-21T08:01:39.392Z,0.00
2019-05-21T08:04:09.143Z,0.00
2019-05-21T08:06:38.867Z,0.00
2019-05-21T08:09:14.398Z,0.00
2019-05-21T08:11:40.061Z,0.00
2019-05-21T08:14:09.816Z,0.00
2019-05-21T08:16:39.551Z,0.00
2019-05-21T08:19:09.444Z,0.00
2019-05-21T08:21:41.816Z,0.00
2019-05-21T08:24:11.540Z,0.00
2019-05-21T08:26:41.420Z,0.00
2019-05-21T08:29:11.283Z,0.00
2019-05-21T08:31:42.352Z,0.00
2019-05-21T08:34:12.057Z,100.00
2019-05-21T08:36:41.800Z,100.00
2019-05-21T08:39:27.401Z,100.00
2019-05-21T08:41:43.055Z,100.00
2019-05-21T08:44:12.849Z,100.00
2019-05-21T08:46:42.739Z,100.00
2019-05-21T08:49:12.490Z,100.00
2019-05-21T08:51:42.243Z,100.00
2019-05-21T08:54:12.545Z,100.00
2019-05-21T08:56:42.334Z,100.00
2019-05-21T08:59:12.111Z,100.00
2019-05-21T09:01:41.926Z,0.00
2019-05-21T09:04:11.936Z,0.00
2019-05-21T09:06:41.697Z,0.00
2019-05-21T09:09:11.821Z,0.00
2019-05-21T09:11:43.246Z,0.00
2019-05-21T09:14:13.016Z,0.00
2019-05-21T09:16:43.244Z,0.00
2019-05-21T09:19:13.045Z,0.00
2019-05-21T09:21:42.800Z,0.00
2019-05-21T09:24:12.606Z,0.00
2019-05-21T09:26:42.326Z,0.00
2019-05-21T09:29:12.006Z,0.00
2019-05-21T09:31:44.964Z,0.00
2019-05-21T09:34:15.089Z,0.00
2019-05-21T09:36:44.875Z,0.00
2019-05-21T09:39:14.659Z,0.00
2019-05-21T09:41:45.046Z,0.00
2019-05-21T09:44:14.744Z,0.00
2019-05-21T09:46:44.653Z,0.00
2019-05-21T09:49:14.440Z,0.00
2019-05-21T09:51:44.116Z,0.00
2019-05-21T09:54:13.927Z,0.00
2019-05-21T09:56:43.670Z,0.00
2019-05-21T09:59:15.032Z,0.00
2019-05-21T10:01:55.211Z,0.00
2019-05-21T10:04:24.994Z,0.00
2019-05-21T10:06:54.776Z,0.00
2019-05-21T10:09:24.537Z,0.00
2019-05-21T10:11:54.325Z,0.00
2019-05-21T10:14:24.066Z,0.00
2019-05-21T10:16:53.840Z,0.00
2019-05-21T10:19:23.644Z,0.00
2019-05-21T10:21:57.134Z,0.00
2019-05-21T10:24:27.028Z,0.00
2019-05-21T10:26:56.768Z,0.00
2019-05-21T10:29:26.649Z,0.00
2019-05-21T10:31:56.397Z,0.00
2019-05-21T10:34:26.513Z,0.00
2019-05-21T10:36:56.759Z,0.00
2019-05-21T10:39:26.616Z,0.00
2019-05-21T10:41:56.855Z,0.00
2019-05-21T10:44:26.626Z,0.00
2019-05-21T10:46:56.455Z,0.00
2019-05-21T10:49:26.346Z,0.00
2019-05-21T10:51:56.118Z,0.00
2019-05-21T10:54:25.902Z,0.00
2019-05-21T10:56:56.463Z,0.00
2019-05-21T10:59:26.207Z,0.00
2019-05-21T11:02:07.406Z,0.00
2019-05-21T11:04:48.691Z,0.00
2019-05-21T11:07:19.000Z,0.00
2019-05-21T11:09:49.392Z,0.00
2019-05-21T11:12:19.084Z,0.00
2019-05-21T11:14:51.179Z,0.00
2019-05-21T11:17:21.831Z,0.00
2019-05-21T11:19:51.604Z,0.00
2019-05-21T11:22:24.967Z,0.00
2019-05-21T11:24:55.663Z,0.00
2019-05-21T11:27:25.468Z,0.00
2019-05-21T11:29:55.204Z,0.00
2019-05-21T11:32:25.000Z,0.00
2019-05-21T11:34:56.424Z,0.00
2019-05-21T11:37:26.115Z,0.00
2019-05-21T11:39:55.787Z,0.00
2019-05-21T11:42:25.763Z,0.00
2019-05-21T11:44:55.494Z,0.00
2019-05-21T11:47:25.237Z,0.00
2019-05-21T11:49:55.056Z,0.00
2019-05-21T11:52:24.779Z,0.00
2019-05-21T11:54:56.055Z,0.00
2019-05-21T11:57:26.231Z,0.00
2019-05-21T11:59:56.259Z,0.00
2019-05-21T12:02:26.624Z,0.00
2019-05-21T12:04:56.401Z,0.00
2019-05-21T12:07:26.632Z,0.00
2019-05-21T12:09:56.472Z,0.00
2019-05-21T12:12:26.153Z,0.00
2019-05-21T12:14:56.206Z,0.00
2019-05-21T12:17:27.243Z,0.00
2019-05-21T12:19:57.041Z,0.00
2019-05-21T12:22:26.720Z,0.00
2019-05-21T12:24:58.809Z,0.00
2019-05-21T12:27:28.595Z,0.00
2019-05-21T12:29:58.949Z,0.00
2019-05-21T12:32:28.780Z,0.00
2019-05-21T12:34:58.591Z,0.00
2019-05-21T12:37:28.343Z,0.00
2019-05-21T12:39:58.261Z,0.00
2019-05-21T12:42:28.042Z,0.00
2019-05-21T12:44:57.813Z,0.00
2019-05-21T12:47:27.629Z,0.00
2019-05-21T12:49:57.393Z,0.00
2019-05-21T12:52:27.064Z,0.00
2019-05-21T12:54:57.913Z,0.00
2019-05-21T12:57:27.510Z,0.00
2019-05-21T12:59:57.313Z,0.00
2019-05-21T13:02:27.207Z,0.00
2019-05-21T13:04:56.960Z,0.00
2019-05-21T13:07:26.691Z,0.00
2019-05-21T13:09:59.114Z,0.00
2019-05-21T13:12:29.452Z,0.00
2019-05-21T13:14:59.203Z,0.00
2019-05-21T13:17:28.993Z,0.00
2019-05-21T13:19:58.755Z,0.00
2019-05-21T13:22:28.936Z,0.00
2019-05-21T13:24:58.921Z,0.00
2019-05-21T13:27:28.670Z,0.00
2019-05-21T13:29:58.424Z,0.00
2019-05-21T13:32:28.214Z,0.00
2019-05-21T13:34:57.950Z,0.00
2019-05-21T13:37:27.683Z,0.00
2019-05-21T13:39:57.504Z,0.00
2019-05-21T13:42:29.917Z,0.00
2019-05-21T13:44:59.726Z,0.00
2019-05-21T13:47:29.496Z,0.00
2019-05-21T13:49:59.314Z,0.00
2019-05-21T13:52:29.270Z,0.00
2019-05-21T13:55:01.577Z,0.00
2019-05-21T13:57:31.287Z,0.00
2019-05-21T14:00:01.585Z,0.00
2019-05-21T14:02:31.412Z,0.00
2019-05-21T14:05:01.110Z,0.00
2019-05-21T14:07:30.686Z,0.00
2019-05-21T14:10:14.035Z,0.00
2019-05-21T14:12:32.169Z,0.00
2019-05-21T14:15:01.838Z,0.00
2019-05-21T14:17:31.740Z,0.00
2019-05-21T14:20:01.476Z,0.00
2019-05-21T14:22:36.022Z,0.00
2019-05-21T14:25:02.853Z,0.00
2019-05-21T14:27:43.895Z,0.00
2019-05-21T14:30:06.427Z,0.00
2019-05-21T14:32:36.111Z,0.00
2019-05-21T14:35:06.237Z,0.00
2019-05-21T14:37:36.223Z,0.00
2019-05-21T14:40:10.457Z,0.00
2019-05-21T14:42:40.346Z,0.00
2019-05-21T14:45:10.357Z,0.00
2019-05-21T14:47:40.174Z,0.00
2019-05-21T14:50:10.013Z,0.00
2019-05-21T14:52:39.759Z,0.00
2019-05-21T14:55:09.582Z,0.00
2019-05-21T14:57:39.927Z,0.00
2019-05-21T15:00:29.835Z,0.00
2019-05-21T15:02:59.673Z,0.00
2019-05-21T15:05:29.470Z,0.00
2019-05-21T15:08:02.087Z,0.00
2019-05-21T15:10:47.266Z,0.00
2019-05-21T15:13:06.265Z,0.00
2019-05-21T15:15:36.302Z,0.00
2019-05-21T15:18:06.167Z,0.00
2019-05-21T15:20:43.321Z,0.00
2019-05-21T15:23:13.400Z,0.00
2019-05-21T15:25:43.128Z,0.00
2019-05-21T15:28:12.967Z,0.00
2019-05-21T15:30:42.709Z,0.00
2019-05-21T15:33:12.472Z,0.00
2019-05-21T15:35:42.251Z,0.00
2019-05-21T15:38:11.984Z,0.00
2019-05-21T15:40:42.547Z,0.00
2019-05-21T15:43:12.399Z,0.00
2019-05-21T15:45:42.096Z,0.00
2019-05-21T15:48:11.798Z,0.00
2019-05-21T15:50:41.579Z,0.00
2019-05-21T15:53:11.188Z,0.00
2019-05-21T15:55:40.990Z,0.00
2019-05-21T15:58:10.914Z,0.00
2019-05-21T16:00:40.679Z,0.00
2019-05-21T16:03:10.490Z,0.00
2019-05-21T16:05:40.243Z,0.00
2019-05-21T16:08:09.957Z,0.00
2019-05-21T16:10:40.126Z,0.00
2019-05-21T16:13:09.894Z,0.00
2019-05-21T16:15:43.028Z,0.00
2019-05-21T16:18:12.840Z,0.00
2019-05-21T16:20:43.451Z,0.00
2019-05-21T16:23:13.461Z,0.00
2019-05-21T16:25:43.293Z,0.00
2019-05-21T16:28:13.087Z,0.00
2019-05-21T16:30:45.784Z,0.00
2019-05-21T16:33:17.017Z,0.00
2019-05-21T16:35:48.848Z,0.00
2019-05-21T16:38:19.596Z,0.00
2019-05-21T16:40:49.760Z,0.00
2019-05-21T16:43:19.447Z,0.00
2019-05-21T16:45:49.356Z,0.00
2019-05-21T16:48:19.069Z,0.00
2019-05-21T16:50:49.096Z,0.00
2019-05-21T16:53:22.408Z,0.00
2019-05-21T16:55:54.736Z,100.00
2019-05-21T16:58:24.535Z,100.00
2019-05-21T17:00:55.708Z,100.00
2019-05-21T17:03:25.519Z,100.00
2019-05-21T17:05:55.787Z,100.00
2019-05-21T17:08:26.445Z,100.00
2019-05-21T17:10:56.307Z,100.00
2019-05-21T17:13:26.180Z,100.00
2019-05-21T17:15:55.998Z,100.00
2019-05-21T17:18:25.739Z,100.00
2019-05-21T17:20:55.569Z,100.00
2019-05-21T17:23:25.312Z,100.00
2019-05-21T17:25:55.093Z,100.00
2019-05-21T17:28:32.197Z,100.00
2019-05-21T17:31:03.109Z,100.00
2019-05-21T17:33:32.888Z,100.00
2019-05-21T17:36:02.713Z,100.00
2019-05-21T17:38:32.505Z,100.00
2019-05-21T17:41:02.289Z,100.00
2019-05-21T17:43:32.071Z,100.00
2019-05-21T17:46:01.882Z,100.00
2019-05-21T17:48:31.695Z,100.00
2019-05-21T17:51:01.569Z,100.00
2019-05-21T17:53:31.384Z,100.00
2019-05-21T17:56:03.113Z,100.00
2019-05-21T17:58:34.787Z,100.00
2019-05-21T18:01:06.212Z,100.00
2019-05-21T18:03:36.917Z,100.00
2019-05-21T18:06:07.506Z,100.00
2019-05-21T18:08:37.779Z,100.00
2019-05-21T18:11:08.127Z,100.00
2019-05-21T18:13:38.344Z,100.00
2019-05-21T18:16:10.134Z,100.00
2019-05-21T18:18:41.276Z,100.00
2019-05-21T18:21:11.287Z,100.00
2019-05-21T18:23:44.612Z,0.00
2019-05-21T18:26:14.513Z,0.00
2019-05-21T18:31:34.255Z,0.00
2019-05-21T18:34:04.347Z,0.00
2019-05-21T18:36:39.393Z,0.00
2019-05-21T18:39:09.088Z,0.00
2019-05-21T18:41:46.906Z,0.00
2019-05-21T18:44:16.798Z,0.00
2019-05-21T18:46:48.885Z,0.00
2019-05-21T18:49:22.287Z,0.00
2019-05-21T18:51:52.608Z,0.00
2019-05-21T18:54:22.447Z,0.00
2019-05-21T18:56:57.115Z,0.00
2019-05-21T18:59:29.484Z,0.00
2019-05-21T19:01:59.422Z,0.00
2019-05-21T19:04:29.666Z,0.00
2019-05-21T19:06:59.971Z,0.00
2019-05-21T19:09:32.766Z,0.00
2019-05-21T19:12:04.067Z,0.00
2019-05-21T19:14:34.460Z,0.00
2019-05-21T19:17:04.428Z,0.00
2019-05-21T19:19:34.516Z,0.00
2019-05-21T19:22:07.360Z,0.00
2019-05-21T19:24:40.071Z,0.00
2019-05-21T19:27:09.979Z,100.00
2019-05-21T19:29:39.954Z,100.00
2019-05-21T19:32:10.233Z,100.00
2019-05-21T19:34:40.118Z,100.00
2019-05-21T19:37:17.483Z,100.00
2019-05-21T19:39:47.784Z,100.00
2019-05-21T19:42:19.119Z,100.00
2019-05-21T19:44:48.988Z,100.00
2019-05-21T19:47:19.098Z,100.00
2019-05-21T19:49:48.969Z,100.00
2019-05-21T19:52:18.874Z,100.00
2019-05-21T19:54:55.903Z,100.00
2019-05-21T19:57:27.614Z,100.00
2019-05-21T19:59:57.779Z,100.00
2019-05-21T20:02:29.309Z,100.00
2019-05-21T20:05:00.453Z,100.00
2019-05-21T20:07:30.637Z,100.00
2019-05-21T20:10:00.451Z,100.00
2019-05-21T20:12:32.442Z,100.00
2019-05-21T20:15:02.516Z,100.00
2019-05-21T20:17:33.277Z,100.00
2019-05-21T20:20:04.216Z,100.00
2019-05-21T20:22:34.188Z,100.00
2019-05-21T20:25:05.053Z,100.00
2019-05-21T20:27:35.524Z,100.00
2019-05-21T20:30:12.800Z,100.00
2019-05-21T20:32:40.451Z,100.00
2019-05-21T20:35:12.187Z,100.00
2019-05-21T20:37:46.493Z,100.00
2019-05-21T20:40:16.866Z,100.00
2019-05-21T20:42:47.638Z,100.00
2019-05-21T20:45:19.093Z,100.00
2019-05-21T20:47:51.153Z,100.00
2019-05-21T20:50:22.675Z,100.00
2019-05-21T20:52:52.673Z,100.00
2019-05-21T20:55:23.061Z,100.00
2019-05-21T20:57:53.405Z,100.00
2019-05-21T21:00:25.309Z,100.00
2019-05-21T21:02:56.053Z,100.00
2019-05-21T21:05:26.346Z,100.00
2019-05-21T21:07:56.293Z,100.00
2019-05-21T21:10:26.574Z,100.00
2019-05-21T21:12:56.631Z,100.00
2019-05-21T21:15:26.218Z,100.00
2019-05-21T21:17:56.224Z,100.00
2019-05-21T21:20:25.983Z,100.00
2019-05-21T21:22:55.727Z,100.00
2019-05-21T21:25:26.043Z,100.00
2019-05-21T21:27:55.695Z,100.00
2019-05-21T21:30:26.080Z,100.00
2019-05-21T21:32:56.511Z,100.00
2019-05-21T21:35:26.943Z,100.00
2019-05-21T21:37:56.642Z,100.00
2019-05-21T21:40:26.406Z,100.00
2019-05-21T21:42:56.125Z,100.00
2019-05-21T21:45:25.969Z,100.00
2019-05-21T21:47:55.677Z,100.00
2019-05-21T21:50:26.268Z,100.00
2019-05-21T21:52:57.245Z,100.00
2019-05-21T21:55:27.086Z,100.00
2019-05-21T21:57:56.794Z,100.00
2019-05-21T22:00:42.886Z,100.00
2019-05-21T22:03:13.294Z,100.00
2019-05-21T22:05:43.697Z,100.00
2019-05-21T22:08:13.508Z,100.00
2019-05-21T22:10:45.793Z,100.00
2019-05-21T22:13:15.286Z,100.00
2019-05-21T22:15:45.185Z,100.00
2019-05-21T22:18:16.209Z,100.00
2019-05-21T22:20:46.303Z,100.00
2019-05-21T22:23:16.387Z,100.00
2019-05-21T22:25:47.020Z,100.00
2019-05-21T22:28:18.280Z,100.00
2019-05-21T22:30:48.558Z,100.00
2019-05-21T22:33:19.786Z,100.00
2019-05-21T22:35:50.415Z,100.00
2019-05-21T22:38:20.467Z,100.00
2019-05-21T22:40:50.428Z,100.00
2019-05-21T22:43:20.958Z,100.00
2019-05-21T22:45:52.760Z,100.00
2019-05-21T22:48:22.656Z,100.00
2019-05-21T22:50:53.277Z,100.00
2019-05-21T22:53:23.066Z,100.00
2019-05-21T22:55:54.649Z,100.00
2019-05-21T22:58:24.951Z,100.00
2019-05-21T23:00:56.065Z,100.00
2019-05-21T23:03:34.021Z,100.00
2019-05-21T23:06:08.424Z,100.00
2019-05-21T23:08:39.285Z,100.00
2019-05-21T23:11:09.284Z,100.00
2019-05-21T23:13:39.067Z,100.00
2019-05-21T23:16:09.096Z,100.00
2019-05-21T23:18:39.982Z,100.00
2019-05-21T23:21:11.321Z,100.00
2019-05-21T23:23:41.701Z,97.79
2019-05-21T23:26:11.586Z,96.47
2019-05-21T23:28:43.056Z,97.13
2019-05-21T23:31:13.215Z,100.00
2019-05-21T23:33:43.809Z,100.00
2019-05-21T23:36:13.790Z,100.00
2019-05-21T23:38:43.800Z,100.00
2019-05-21T23:41:13.465Z,94.89
2019-05-21T23:43:43.290Z,90.18
2019-05-21T23:46:15.389Z,96.47
2019-05-21T23:48:46.722Z,75.37
2019-05-21T23:51:17.249Z,64.13
2019-05-21T23:53:47.175Z,58.93
2019-05-21T23:56:18.023Z,60.53
2019-05-21T23:58:48.247Z,51.30
